createdAt,value
2017-03-12T00:00:28.522Z,61.69
2017-03-12T00:01:28.618Z,62.80
2017-03-12T00:02:24.751Z,62.68
2017-03-12T00:03:27.030Z,63.11
2017-03-12T00:04:24.768Z,62.92
2017-03-12T00:05:28.746Z,62.23
2017-03-12T00:06:27.375Z,62.18
2017-03-12T00:07:28.191Z,61.66
2017-03-12T00:08:25.045Z,62.39
2017-03-12T00:09:28.857Z,61.99
2017-03-12T00:10:33.725Z,61.93
2017-03-12T00:11:33.033Z,62.41
2017-03-12T00:12:34.150Z,62.88
2017-03-12T00:13:27.050Z,62.82
2017-03-12T00:14:23.123Z,63.58
2017-03-12T00:15:25.334Z,63.47
2017-03-12T00:16:29.456Z,63.66
2017-03-12T00:17:29.682Z,63.76
2017-03-12T00:18:28.775Z,63.80
2017-03-12T00:19:24.744Z,63.25
2017-03-12T00:20:28.144Z,64.22
2017-03-12T00:21:28.025Z,63.34
2017-03-12T00:22:25.072Z,63.62
2017-03-12T00:23:28.152Z,63.47
2017-03-12T00:24:44.264Z,63.42
2017-03-12T00:25:33.356Z,63.22
2017-03-12T00:26:23.645Z,63.54
2017-03-12T00:27:25.033Z,64.39
2017-03-12T00:28:27.054Z,64.23
2017-03-12T00:29:21.558Z,64.58
2017-03-12T00:30:39.257Z,64.67
2017-03-12T00:31:28.755Z,64.88
2017-03-12T00:32:33.638Z,65.33
2017-03-12T00:33:19.608Z,65.34
2017-03-12T00:34:27.485Z,65.27
2017-03-12T00:35:33.800Z,65.36
2017-03-12T00:36:27.865Z,65.70
2017-03-12T00:37:28.959Z,65.43
2017-03-12T00:38:29.935Z,64.62
2017-03-12T00:39:29.545Z,64.91
2017-03-12T00:40:26.743Z,64.95
2017-03-12T00:41:28.853Z,64.96
2017-03-12T00:42:27.056Z,64.47
2017-03-12T00:43:38.363Z,64.53
2017-03-12T00:44:27.402Z,65.05
2017-03-12T00:45:29.513Z,64.52
2017-03-12T00:46:28.247Z,64.47
2017-03-12T00:47:27.331Z,64.32
2017-03-12T00:48:33.455Z,65.00
2017-03-12T00:49:26.787Z,65.14
2017-03-12T00:50:22.884Z,65.46
2017-03-12T00:51:30.021Z,66.02
2017-03-12T00:52:24.454Z,65.64
2017-03-12T00:53:26.764Z,66.01
2017-03-12T00:54:33.539Z,65.40
2017-03-12T00:55:28.038Z,66.29
2017-03-12T00:56:25.232Z,66.04
2017-03-12T00:57:28.173Z,65.78
2017-03-12T00:58:31.973Z,65.90
2017-03-12T00:59:26.762Z,66.46
2017-03-12T01:00:27.870Z,65.77
2017-03-12T01:01:28.939Z,65.85
2017-03-12T01:02:28.046Z,65.44
2017-03-12T01:03:27.990Z,65.29
2017-03-12T01:04:27.353Z,65.40
2017-03-12T01:05:24.998Z,65.93
2017-03-12T01:06:28.075Z,66.14
2017-03-12T01:07:25.142Z,66.21
2017-03-12T01:08:26.795Z,66.16
2017-03-12T01:09:29.056Z,66.44
2017-03-12T01:10:25.223Z,66.11
2017-03-12T01:11:37.875Z,66.27
2017-03-12T01:12:38.070Z,66.29
2017-03-12T01:13:32.997Z,66.26
2017-03-12T01:14:28.187Z,66.03
2017-03-12T01:15:25.899Z,66.37
2017-03-12T01:16:28.355Z,66.83
2017-03-12T01:17:19.536Z,66.39
2017-03-12T01:18:28.675Z,66.20
2017-03-12T01:19:26.963Z,66.62
2017-03-12T01:20:28.820Z,66.92
2017-03-12T01:21:32.080Z,66.73
2017-03-12T01:22:38.601Z,66.34
2017-03-12T01:23:27.050Z,66.53
2017-03-12T01:24:28.182Z,66.77
2017-03-12T01:25:31.540Z,66.86
2017-03-12T01:26:27.125Z,67.03
2017-03-12T01:27:24.313Z,67.13
2017-03-12T01:28:27.168Z,67.21
2017-03-12T01:29:26.758Z,66.71
2017-03-12T01:30:25.100Z,66.66
2017-03-12T01:31:20.374Z,67.37
2017-03-12T01:32:34.559Z,67.28
2017-03-12T01:33:33.107Z,67.52
2017-03-12T01:34:28.181Z,67.39
2017-03-12T01:35:27.162Z,66.90
2017-03-12T01:36:29.466Z,67.42
2017-03-12T01:37:37.815Z,67.54
2017-03-12T01:38:28.362Z,67.18
2017-03-12T01:39:28.381Z,67.49
2017-03-12T01:40:33.476Z,67.47
2017-03-12T01:41:33.314Z,67.54
2017-03-12T01:42:32.910Z,67.63
2017-03-12T01:43:33.322Z,67.79
2017-03-12T01:44:27.053Z,68.00
2017-03-12T01:45:33.744Z,68.22
2017-03-12T01:46:33.198Z,68.22
2017-03-12T01:47:28.320Z,68.42
2017-03-12T01:48:28.052Z,68.16
2017-03-12T01:49:32.401Z,68.56
2017-03-12T01:50:31.727Z,68.50
2017-03-12T01:51:26.994Z,67.95
2017-03-12T01:52:26.896Z,67.94
2017-03-12T01:53:34.090Z,67.45
2017-03-12T01:54:27.228Z,67.19
2017-03-12T01:55:33.411Z,67.62
2017-03-12T01:56:27.231Z,67.63
2017-03-12T01:57:29.354Z,67.89
2017-03-12T01:58:37.944Z,67.75
2017-03-12T01:59:32.677Z,67.67
2017-03-12T02:00:29.521Z,66.69
2017-03-12T02:01:23.566Z,66.50
2017-03-12T02:02:35.946Z,66.68
2017-03-12T02:03:28.486Z,66.99
2017-03-12T02:04:26.769Z,66.80
2017-03-12T02:05:24.946Z,67.01
2017-03-12T02:06:33.156Z,67.05
2017-03-12T02:07:26.887Z,66.69
2017-03-12T02:08:34.230Z,66.84
2017-03-12T02:09:28.653Z,66.88
2017-03-12T02:10:28.853Z,66.65
2017-03-12T02:11:32.141Z,65.90
2017-03-12T02:12:24.206Z,65.49
2017-03-12T02:13:38.073Z,65.30
2017-03-12T02:14:32.829Z,64.51
2017-03-12T02:15:28.980Z,65.25
2017-03-12T02:16:27.340Z,66.02
2017-03-12T02:17:39.005Z,66.02
2017-03-12T02:18:27.142Z,65.35
2017-03-12T02:19:27.873Z,65.61
2017-03-12T02:20:25.132Z,66.24
2017-03-12T02:21:28.343Z,65.94
2017-03-12T02:22:26.737Z,66.06
2017-03-12T02:23:21.704Z,66.43
2017-03-12T02:24:27.472Z,65.56
2017-03-12T02:25:28.924Z,65.90
2017-03-12T02:26:27.078Z,65.47
2017-03-12T02:27:38.454Z,65.87
2017-03-12T02:28:27.799Z,65.92
2017-03-12T02:29:38.980Z,65.25
2017-03-12T02:30:27.001Z,65.78
2017-03-12T02:31:27.622Z,65.19
2017-03-12T02:32:25.219Z,65.34
2017-03-12T02:33:27.293Z,65.64
2017-03-12T02:34:27.832Z,66.05
2017-03-12T02:35:28.551Z,66.69
2017-03-12T02:36:29.235Z,66.70
2017-03-12T02:37:34.140Z,66.34
2017-03-12T02:38:27.332Z,66.67
2017-03-12T02:39:23.632Z,66.47
2017-03-12T02:40:25.728Z,65.82
2017-03-12T02:41:32.532Z,66.21
2017-03-12T02:42:29.100Z,65.97
2017-03-12T02:43:32.211Z,66.76
2017-03-12T02:44:28.812Z,66.31
2017-03-12T02:45:24.419Z,66.31
2017-03-12T02:47:28.121Z,66.05
2017-03-12T02:48:25.189Z,66.61
2017-03-12T02:49:33.056Z,65.87
2017-03-12T02:53:38.528Z,66.02
2017-03-12T02:54:33.696Z,66.40
2017-03-12T02:57:34.659Z,66.59
2017-03-12T03:01:26.341Z,66.56
2017-03-12T03:07:43.283Z,66.26
2017-03-12T03:08:38.870Z,65.85
2017-03-12T03:09:32.664Z,66.63
2017-03-12T03:14:26.384Z,66.27
2017-03-12T03:16:35.136Z,67.48
2017-03-12T03:23:29.863Z,67.64
2017-03-12T03:26:26.075Z,67.06
2017-03-12T03:30:32.149Z,67.19
2017-03-12T03:34:34.911Z,67.58
2017-03-12T03:35:27.176Z,67.55
2017-03-12T03:36:26.284Z,68.61
2017-03-12T03:37:28.894Z,68.62
2017-03-12T03:43:25.241Z,68.25
2017-03-12T03:44:37.386Z,68.80
2017-03-12T03:45:21.686Z,68.24
2017-03-12T03:46:27.059Z,67.98
2017-03-12T03:47:25.222Z,68.27
2017-03-12T03:49:25.444Z,69.67
2017-03-12T03:50:25.072Z,68.76
2017-03-12T03:51:38.256Z,68.15
2017-03-12T03:52:33.776Z,68.13
2017-03-12T03:53:26.759Z,68.61
2017-03-12T03:54:32.427Z,68.01
2017-03-12T03:55:27.236Z,67.97
2017-03-12T03:56:25.412Z,68.12
2017-03-12T03:57:38.929Z,69.11
2017-03-12T03:58:33.348Z,68.70
2017-03-12T03:59:25.571Z,68.18
2017-03-12T04:00:34.099Z,68.03
2017-03-12T04:01:32.378Z,68.45
2017-03-12T04:02:26.322Z,68.71
2017-03-12T04:03:27.430Z,68.78
2017-03-12T04:04:28.495Z,68.67
2017-03-12T04:05:29.894Z,68.43
2017-03-12T04:06:23.491Z,68.62
2017-03-12T04:07:33.033Z,68.62
2017-03-12T04:08:25.310Z,68.70
2017-03-12T04:09:38.396Z,68.58
2017-03-12T04:10:28.251Z,68.47
2017-03-12T04:11:29.650Z,68.12
2017-03-12T04:12:29.778Z,67.75
2017-03-12T04:13:27.241Z,68.59
2017-03-12T04:14:28.175Z,67.98
2017-03-12T04:15:32.412Z,67.67
2017-03-12T04:16:33.031Z,68.18
2017-03-12T04:17:26.650Z,68.64
2017-03-12T04:18:27.168Z,68.53
2017-03-12T04:19:32.941Z,68.78
2017-03-12T04:20:25.048Z,69.08
2017-03-12T04:21:34.181Z,68.66
2017-03-12T04:22:28.303Z,69.75
2017-03-12T04:23:29.968Z,69.18
2017-03-12T04:24:32.079Z,69.21
2017-03-12T04:25:31.679Z,68.95
2017-03-12T04:26:28.810Z,69.02
2017-03-12T04:27:29.650Z,68.46
2017-03-12T04:28:28.754Z,69.54
2017-03-12T04:29:28.230Z,69.14
2017-03-12T04:30:29.628Z,69.55
2017-03-12T04:31:37.469Z,69.08
2017-03-12T04:32:26.458Z,69.34
2017-03-12T04:33:37.154Z,69.75
2017-03-12T04:34:24.943Z,69.60
2017-03-12T04:35:27.083Z,69.58
2017-03-12T04:36:33.540Z,69.17
2017-03-12T04:37:25.136Z,69.82
2017-03-12T04:38:28.627Z,69.50
2017-03-12T04:39:18.234Z,70.06
2017-03-12T04:40:32.346Z,69.58
2017-03-12T04:41:27.161Z,69.71
2017-03-12T04:42:29.421Z,69.67
2017-03-12T04:43:32.529Z,69.44
2017-03-12T04:44:28.892Z,69.20
2017-03-12T04:45:27.990Z,69.14
2017-03-12T04:46:38.923Z,69.17
2017-03-12T04:47:42.301Z,69.55
2017-03-12T04:48:28.561Z,70.33
2017-03-12T04:49:33.693Z,70.73
2017-03-12T04:50:27.333Z,70.24
2017-03-12T04:51:28.185Z,69.83
2017-03-12T04:52:28.895Z,70.34
2017-03-12T04:53:26.811Z,70.03
2017-03-12T04:54:32.179Z,70.24
2017-03-12T04:55:25.588Z,70.39
2017-03-12T04:56:34.052Z,70.24
2017-03-12T04:57:27.138Z,69.93
2017-03-12T04:58:28.132Z,70.03
2017-03-12T04:59:33.986Z,69.95
2017-03-12T05:00:33.569Z,69.88
2017-03-12T05:01:33.597Z,70.10
2017-03-12T05:03:28.522Z,70.23
2017-03-12T05:04:27.348Z,70.33
2017-03-12T05:05:28.644Z,69.83
2017-03-12T05:06:27.275Z,70.27
2017-03-12T05:07:25.236Z,70.66
2017-03-12T05:08:24.913Z,70.43
2017-03-12T05:09:53.847Z,70.21
2017-03-12T05:10:33.039Z,69.99
2017-03-12T05:11:29.528Z,69.97
2017-03-12T05:12:32.652Z,70.44
2017-03-12T05:13:24.929Z,70.20
2017-03-12T05:14:28.045Z,70.34
2017-03-12T05:15:34.298Z,70.46
2017-03-12T05:16:32.767Z,70.30
2017-03-12T05:17:33.247Z,70.44
2017-03-12T05:18:28.820Z,70.34
2017-03-12T05:19:33.496Z,70.81
2017-03-12T05:20:32.689Z,70.63
2017-03-12T05:21:33.230Z,70.24
2017-03-12T05:22:25.223Z,70.52
2017-03-12T05:23:32.554Z,70.42
2017-03-12T05:24:33.533Z,70.60
2017-03-12T05:26:33.446Z,70.98
2017-03-12T05:27:28.552Z,71.11
2017-03-12T05:28:33.150Z,70.72
2017-03-12T05:29:27.446Z,70.90
2017-03-12T05:30:29.190Z,70.61
2017-03-12T05:31:25.513Z,70.55
2017-03-12T05:32:37.948Z,70.14
2017-03-12T05:33:32.142Z,70.17
2017-03-12T05:34:37.124Z,70.63
2017-03-12T05:35:27.186Z,70.85
2017-03-12T05:36:27.204Z,70.45
2017-03-12T05:37:33.869Z,70.61
2017-03-12T05:38:32.978Z,70.65
2017-03-12T05:39:19.335Z,70.31
2017-03-12T05:40:20.226Z,70.69
2017-03-12T05:41:47.074Z,70.09
2017-03-12T05:42:33.305Z,70.24
2017-03-12T05:43:32.311Z,70.41
2017-03-12T05:44:28.732Z,70.12
2017-03-12T05:45:32.231Z,70.38
2017-03-12T05:46:28.275Z,69.63
2017-03-12T05:47:32.843Z,70.01
2017-03-12T05:48:33.064Z,70.21
2017-03-12T05:49:25.818Z,70.59
2017-03-12T05:50:28.381Z,70.59
2017-03-12T05:51:25.244Z,69.91
2017-03-12T05:52:28.365Z,70.36
2017-03-12T05:53:26.572Z,70.46
2017-03-12T05:54:32.813Z,70.33
2017-03-12T05:55:27.383Z,70.61
2017-03-12T05:56:28.503Z,70.87
2017-03-12T05:57:32.057Z,70.78
2017-03-12T05:58:29.748Z,70.86
2017-03-12T05:59:28.548Z,70.48
2017-03-12T06:00:19.679Z,70.78
2017-03-12T06:01:25.042Z,70.59
2017-03-12T06:02:33.642Z,71.04
2017-03-12T06:03:32.758Z,70.71
2017-03-12T06:04:27.805Z,70.77
2017-03-12T06:05:42.617Z,70.74
2017-03-12T06:06:32.630Z,70.70
2017-03-12T06:07:28.702Z,70.55
2017-03-12T06:08:28.069Z,70.58
2017-03-12T06:09:38.796Z,70.90
2017-03-12T06:10:29.516Z,71.01
2017-03-12T06:11:28.072Z,71.33
2017-03-12T06:12:27.842Z,71.29
2017-03-12T06:13:33.360Z,70.63
2017-03-12T06:14:32.838Z,70.79
2017-03-12T06:15:25.181Z,70.62
2017-03-12T06:16:27.878Z,70.32
2017-03-12T06:17:28.760Z,69.93
2017-03-12T06:18:32.690Z,70.67
2017-03-12T06:19:33.642Z,70.47
2017-03-12T06:20:28.839Z,70.89
2017-03-12T06:21:23.911Z,70.56
2017-03-12T06:22:28.065Z,70.78
2017-03-12T06:23:29.971Z,70.56
2017-03-12T06:24:25.492Z,70.29
2017-03-12T06:25:27.060Z,70.59
2017-03-12T06:26:25.358Z,70.47
2017-03-12T06:27:27.892Z,70.88
2017-03-12T06:28:31.896Z,70.61
2017-03-12T06:29:28.505Z,70.80
2017-03-12T06:30:28.695Z,71.26
2017-03-12T06:31:25.271Z,70.88
2017-03-12T06:32:33.593Z,71.11
2017-03-12T06:33:27.487Z,70.62
2017-03-12T06:34:32.592Z,70.60
2017-03-12T06:35:28.532Z,71.09
2017-03-12T06:36:27.289Z,71.40
2017-03-12T06:37:27.384Z,71.14
2017-03-12T06:38:28.771Z,71.43
2017-03-12T06:39:33.195Z,71.46
2017-03-12T06:40:37.955Z,70.96
2017-03-12T06:41:28.794Z,70.83
2017-03-12T06:42:28.947Z,70.97
2017-03-12T06:43:33.458Z,71.36
2017-03-12T06:44:33.675Z,71.24
2017-03-12T06:46:33.687Z,70.96
2017-03-12T06:47:33.475Z,70.66
2017-03-12T06:48:39.328Z,70.67
2017-03-12T06:49:28.393Z,70.56
2017-03-12T06:50:38.385Z,70.11
2017-03-12T06:51:32.344Z,70.51
2017-03-12T06:52:24.906Z,70.20
2017-03-12T06:53:28.349Z,70.02
2017-03-12T06:54:37.208Z,69.89
2017-03-12T06:55:27.776Z,69.73
2017-03-12T06:56:25.254Z,69.34
2017-03-12T06:57:33.596Z,70.06
2017-03-12T06:58:29.183Z,70.07
2017-03-12T06:59:29.108Z,69.78
2017-03-12T07:00:25.284Z,69.90
2017-03-12T07:01:27.853Z,69.83
2017-03-12T07:02:32.744Z,69.80
2017-03-12T07:03:33.098Z,69.93
2017-03-12T07:04:23.623Z,69.62
2017-03-12T07:05:28.304Z,68.85
2017-03-12T07:06:38.164Z,68.80
2017-03-12T07:07:27.245Z,69.73
2017-03-12T07:08:25.133Z,69.55
2017-03-12T07:09:28.164Z,70.03
2017-03-12T07:10:27.350Z,69.78
2017-03-12T07:11:33.473Z,69.10
2017-03-12T07:12:34.036Z,68.51
2017-03-12T07:13:43.873Z,68.58
2017-03-12T07:14:33.336Z,68.21
2017-03-12T07:15:38.574Z,69.19
2017-03-12T07:16:37.621Z,69.53
2017-03-12T07:17:33.052Z,69.61
2017-03-12T07:18:32.191Z,69.30
2017-03-12T07:19:24.757Z,68.74
2017-03-12T07:20:32.283Z,67.99
2017-03-12T07:21:28.203Z,68.51
2017-03-12T07:22:38.321Z,68.95
2017-03-12T07:23:33.944Z,69.08
2017-03-12T07:24:34.045Z,68.63
2017-03-12T07:25:45.242Z,68.32
2017-03-12T07:26:28.068Z,68.19
2017-03-12T07:27:28.423Z,68.14
2017-03-12T07:28:27.601Z,68.43
2017-03-12T07:29:33.448Z,68.11
2017-03-12T07:30:33.536Z,68.32
2017-03-12T07:31:28.292Z,68.40
2017-03-12T07:32:37.431Z,68.29
2017-03-12T07:33:37.875Z,67.96
2017-03-12T07:34:28.392Z,67.64
2017-03-12T07:35:33.466Z,68.09
2017-03-12T07:36:33.051Z,67.82
2017-03-12T07:37:27.535Z,68.03
2017-03-12T07:38:33.268Z,67.82
2017-03-12T07:39:32.695Z,67.86
2017-03-12T07:40:27.809Z,68.38
2017-03-12T07:41:27.866Z,67.55
2017-03-12T07:42:32.119Z,68.13
2017-03-12T07:43:32.953Z,67.96
2017-03-12T07:44:24.929Z,67.46
2017-03-12T07:45:37.061Z,67.92
2017-03-12T07:46:36.379Z,67.27
2017-03-12T07:47:33.583Z,66.93
2017-03-12T07:48:32.916Z,67.05
2017-03-12T07:49:32.962Z,66.81
2017-03-12T07:50:25.746Z,66.69
2017-03-12T07:51:28.903Z,66.98
2017-03-12T07:52:21.862Z,66.97
2017-03-12T07:53:27.704Z,66.69
2017-03-12T07:54:28.514Z,66.66
2017-03-12T07:55:32.268Z,66.78
2017-03-12T07:56:24.339Z,66.40
2017-03-12T07:57:25.103Z,66.18
2017-03-12T07:58:33.947Z,65.84
2017-03-12T07:59:40.133Z,65.91
2017-03-12T08:00:37.469Z,66.13
2017-03-12T08:01:32.718Z,66.64
2017-03-12T08:02:26.674Z,66.75
2017-03-12T08:03:29.622Z,66.07
2017-03-12T08:04:36.275Z,66.44
2017-03-12T08:05:32.662Z,66.55
2017-03-12T08:06:33.790Z,66.93
2017-03-12T08:07:38.880Z,66.33
2017-03-12T08:08:28.558Z,66.32
2017-03-12T08:09:34.157Z,66.22
2017-03-12T08:10:28.609Z,66.72
2017-03-12T08:11:32.478Z,66.43
2017-03-12T08:12:27.803Z,66.25
2017-03-12T08:14:37.759Z,66.13
2017-03-12T08:15:27.380Z,66.02
2017-03-12T08:16:29.944Z,65.90
2017-03-12T08:17:27.587Z,65.78
2017-03-12T08:18:28.892Z,65.62
2017-03-12T08:19:33.967Z,65.94
2017-03-12T08:20:28.565Z,65.76
2017-03-12T08:21:26.411Z,65.95
2017-03-12T08:22:32.746Z,65.55
2017-03-12T08:23:32.920Z,65.09
2017-03-12T08:24:32.035Z,65.07
2017-03-12T08:25:37.780Z,65.05
2017-03-12T08:26:29.917Z,65.01
2017-03-12T08:27:24.336Z,64.55
2017-03-12T08:28:28.375Z,64.49
2017-03-12T08:29:28.539Z,64.95
2017-03-12T08:30:43.667Z,65.19
2017-03-12T08:31:28.119Z,64.88
2017-03-12T08:32:32.227Z,64.74
2017-03-12T08:33:24.175Z,64.70
2017-03-12T08:34:28.244Z,64.76
2017-03-12T08:35:38.166Z,63.91
2017-03-12T08:36:32.255Z,64.05
2017-03-12T08:37:29.461Z,64.83
2017-03-12T08:38:26.948Z,63.82
2017-03-12T08:39:24.917Z,64.15
2017-03-12T08:40:28.577Z,64.12
2017-03-12T08:41:27.746Z,63.98
2017-03-12T08:42:27.996Z,63.87
2017-03-12T08:43:33.647Z,63.98
2017-03-12T08:44:23.206Z,64.23
2017-03-12T08:45:28.001Z,64.20
2017-03-12T08:46:28.310Z,64.17
2017-03-12T08:47:28.459Z,63.68
2017-03-12T08:48:28.699Z,63.41
2017-03-12T08:49:28.276Z,62.80
2017-03-12T08:50:31.367Z,62.82
2017-03-12T08:51:26.502Z,62.57
2017-03-12T08:52:33.056Z,62.96
2017-03-12T08:53:32.513Z,63.20
2017-03-12T08:54:19.612Z,63.37
2017-03-12T08:55:28.491Z,62.31
2017-03-12T08:56:24.584Z,62.28
2017-03-12T08:57:32.695Z,62.82
2017-03-12T08:58:33.876Z,62.64
2017-03-12T08:59:28.691Z,62.60
2017-03-12T09:00:32.676Z,62.72
2017-03-12T09:01:28.047Z,63.13
2017-03-12T09:02:31.981Z,62.86
2017-03-12T09:03:22.506Z,63.00
2017-03-12T09:04:33.408Z,62.55
2017-03-12T09:05:27.379Z,62.53
2017-03-12T09:06:33.681Z,62.04
2017-03-12T09:07:38.941Z,61.96
2017-03-12T09:08:38.555Z,61.47
2017-03-12T09:09:32.542Z,61.12
2017-03-12T09:10:27.873Z,61.58
2017-03-12T09:11:48.956Z,61.75
2017-03-12T09:12:32.428Z,62.14
2017-03-12T09:13:37.116Z,61.00
2017-03-12T09:14:27.528Z,61.42
2017-03-12T09:15:38.393Z,61.10
2017-03-12T09:16:26.956Z,61.00
2017-03-12T09:17:32.960Z,61.24
2017-03-12T09:18:23.605Z,60.75
2017-03-12T09:19:28.571Z,59.72
2017-03-12T09:20:28.241Z,60.59
2017-03-12T09:21:35.030Z,60.61
2017-03-12T09:22:29.126Z,59.52
2017-03-12T09:23:37.136Z,59.56
2017-03-12T09:24:28.557Z,60.07
2017-03-12T09:25:38.932Z,59.98
2017-03-12T09:26:28.215Z,59.74
2017-03-12T09:27:20.356Z,60.22
2017-03-12T09:28:28.967Z,59.13
2017-03-12T09:29:24.586Z,58.77
2017-03-12T09:30:38.322Z,59.46
2017-03-12T09:31:28.978Z,58.83
2017-03-12T09:32:33.326Z,59.28
2017-03-12T09:33:33.678Z,57.68
2017-03-12T09:34:38.695Z,58.04
2017-03-12T09:35:33.503Z,58.45
2017-03-12T09:36:29.678Z,57.51
2017-03-12T09:37:34.141Z,57.67
2017-03-12T09:38:33.522Z,56.60
2017-03-12T09:39:28.137Z,56.29
2017-03-12T09:40:24.177Z,57.59
2017-03-12T09:41:29.909Z,55.94
2017-03-12T09:42:38.476Z,56.25
2017-03-12T09:43:43.481Z,55.57
2017-03-12T09:44:32.692Z,56.18
2017-03-12T09:45:43.443Z,53.98
2017-03-12T09:46:33.647Z,53.64
2017-03-12T09:47:28.777Z,54.01
2017-03-12T09:48:38.586Z,53.55
2017-03-12T09:49:27.238Z,54.03
2017-03-12T09:50:25.215Z,54.41
2017-03-12T09:51:28.328Z,54.03
2017-03-12T09:52:27.995Z,53.52
2017-03-12T09:53:27.975Z,54.86
2017-03-12T09:54:29.754Z,54.27
2017-03-12T09:56:26.964Z,53.83
2017-03-12T09:57:33.660Z,54.25
2017-03-12T09:58:33.661Z,53.33
2017-03-12T09:59:28.789Z,54.97
2017-03-12T10:00:27.887Z,54.69
2017-03-12T10:01:27.578Z,55.69
2017-03-12T10:02:38.277Z,54.60
2017-03-12T10:03:33.430Z,55.03
2017-03-12T10:04:25.182Z,54.78
2017-03-12T10:05:25.328Z,54.64
2017-03-12T10:06:29.572Z,54.42
2017-03-12T10:07:28.292Z,54.24
2017-03-12T10:08:28.472Z,55.01
2017-03-12T10:09:33.328Z,55.11
2017-03-12T10:10:28.775Z,56.28
2017-03-12T10:11:32.872Z,54.38
2017-03-12T10:12:27.926Z,54.91
2017-03-12T10:13:33.621Z,54.51
2017-03-12T10:14:27.383Z,56.13
2017-03-12T10:15:32.353Z,55.71
2017-03-12T10:16:23.481Z,56.57
2017-03-12T10:17:29.232Z,53.82
2017-03-12T10:18:37.835Z,54.39
2017-03-12T10:20:43.685Z,55.18
2017-03-12T10:21:27.794Z,52.50
2017-03-12T10:22:33.631Z,51.49
2017-03-12T10:24:36.864Z,53.78
2017-03-12T10:25:32.951Z,54.30
2017-03-12T10:26:37.006Z,53.58
2017-03-12T10:27:27.621Z,52.67
2017-03-12T10:28:27.341Z,53.61
2017-03-12T10:30:29.845Z,52.92
2017-03-12T10:32:27.470Z,53.82
2017-03-12T10:33:25.211Z,54.35
2017-03-12T10:34:27.755Z,54.82
2017-03-12T10:36:33.549Z,54.29
2017-03-12T10:37:33.564Z,52.79
2017-03-12T10:38:28.618Z,51.07
2017-03-12T10:39:28.850Z,52.84
2017-03-12T10:41:33.573Z,53.08
2017-03-12T10:42:32.565Z,54.31
2017-03-12T10:44:32.682Z,53.60
2017-03-12T10:45:34.019Z,52.62
2017-03-12T10:46:27.351Z,53.30
2017-03-12T10:47:27.386Z,53.69
2017-03-12T10:48:24.415Z,53.65
2017-03-12T10:49:32.385Z,51.69
2017-03-12T10:50:33.574Z,52.34
2017-03-12T10:52:31.971Z,53.82
2017-03-12T10:53:19.034Z,54.37
2017-03-12T10:54:33.916Z,53.73
2017-03-12T10:56:25.591Z,52.98
2017-03-12T10:57:34.360Z,52.87
2017-03-12T10:58:38.028Z,52.53
2017-03-12T10:59:32.044Z,52.58
2017-03-12T11:00:33.639Z,52.04
2017-03-12T11:01:28.280Z,50.87
2017-03-12T11:02:29.921Z,51.18
2017-03-12T11:03:24.088Z,49.46
2017-03-12T11:04:28.911Z,49.47
2017-03-12T11:05:23.023Z,50.13
2017-03-12T11:06:33.924Z,49.99
2017-03-12T11:07:38.981Z,50.03
2017-03-12T11:08:34.844Z,49.11
2017-03-12T11:09:33.677Z,50.12
2017-03-12T11:10:38.734Z,50.54
2017-03-12T11:11:32.097Z,51.23
2017-03-12T11:12:32.205Z,51.17
2017-03-12T11:13:22.431Z,50.74
2017-03-12T11:14:26.748Z,50.24
2017-03-12T11:15:22.814Z,50.25
2017-03-12T11:16:32.617Z,49.79
2017-03-12T11:17:32.755Z,50.88
2017-03-12T11:18:34.136Z,50.16
2017-03-12T11:19:27.631Z,49.53
2017-03-12T11:20:27.390Z,50.02
2017-03-12T11:21:38.321Z,50.35
2017-03-12T11:22:27.924Z,52.11
2017-03-12T11:23:25.180Z,52.09
2017-03-12T11:24:33.894Z,51.56
2017-03-12T11:25:25.861Z,51.24
2017-03-12T11:26:24.341Z,50.91
2017-03-12T11:27:32.963Z,50.86
2017-03-12T11:28:38.203Z,50.15
2017-03-12T11:29:38.210Z,51.20
2017-03-12T11:30:32.934Z,50.95
2017-03-12T11:31:25.616Z,50.83
2017-03-12T11:32:30.994Z,51.23
2017-03-12T11:33:38.017Z,52.43
2017-03-12T11:35:23.338Z,52.28
2017-03-12T11:36:38.093Z,52.29
2017-03-12T11:37:27.860Z,50.89
2017-03-12T11:38:35.690Z,50.72
2017-03-12T11:39:31.800Z,51.25
2017-03-12T11:40:28.963Z,51.60
2017-03-12T11:41:28.447Z,50.35
2017-03-12T11:42:27.963Z,51.55
2017-03-12T11:43:43.457Z,52.86
2017-03-12T11:44:27.997Z,51.52
2017-03-12T11:45:23.986Z,51.33
2017-03-12T11:46:33.166Z,50.01
2017-03-12T11:47:19.845Z,50.41
2017-03-12T11:48:32.321Z,50.41
2017-03-12T11:49:28.372Z,50.90
2017-03-12T11:50:24.229Z,50.67
2017-03-12T11:51:32.219Z,49.86
2017-03-12T11:52:32.386Z,50.23
2017-03-12T11:53:24.487Z,51.49
2017-03-12T11:54:39.195Z,49.99
2017-03-12T11:55:34.215Z,49.37
2017-03-12T11:56:31.119Z,50.41
2017-03-12T11:58:38.229Z,50.82
2017-03-12T11:59:33.444Z,51.83
2017-03-12T12:00:29.675Z,50.87
2017-03-12T12:01:37.727Z,51.07
2017-03-12T12:02:43.583Z,50.48
2017-03-12T12:03:32.399Z,50.62
2017-03-12T12:04:37.614Z,50.52
2017-03-12T12:05:19.275Z,49.43
2017-03-12T12:06:44.240Z,49.37
2017-03-12T12:07:39.202Z,50.23
2017-03-12T12:08:27.567Z,48.00
2017-03-12T12:09:44.243Z,47.95
2017-03-12T12:10:33.126Z,49.80
2017-03-12T12:11:28.239Z,50.11
2017-03-12T12:12:30.000Z,52.40
2017-03-12T12:13:33.005Z,49.18
2017-03-12T12:14:33.467Z,54.18
2017-03-12T12:15:32.763Z,49.01
2017-03-12T12:16:32.012Z,49.40
2017-03-12T12:17:35.365Z,48.95
2017-03-12T12:18:30.372Z,47.67
2017-03-12T12:21:24.369Z,48.86
2017-03-12T12:24:40.161Z,51.45
2017-03-12T12:25:18.734Z,50.81
2017-03-12T12:27:24.131Z,48.45
2017-03-12T12:28:25.052Z,48.28
2017-03-12T12:30:40.089Z,49.44
2017-03-12T12:31:36.282Z,50.04
2017-03-12T12:33:34.483Z,51.35
2017-03-12T12:34:33.331Z,48.10
2017-03-12T12:35:25.757Z,47.52
2017-03-12T12:36:32.328Z,49.86
2017-03-12T12:37:25.211Z,47.16
2017-03-12T12:39:26.270Z,47.18
2017-03-12T12:40:32.668Z,46.56
2017-03-12T12:41:25.128Z,48.08
2017-03-12T12:45:35.832Z,47.26
2017-03-12T12:46:28.093Z,47.65
2017-03-12T12:47:32.681Z,47.46
2017-03-12T12:48:37.462Z,45.43
2017-03-12T12:49:25.088Z,45.91
2017-03-12T12:51:32.406Z,46.05
2017-03-12T12:52:32.553Z,45.15
2017-03-12T12:53:40.621Z,44.19
2017-03-12T12:54:31.891Z,44.84
2017-03-12T12:56:31.525Z,44.37
2017-03-12T12:59:45.092Z,44.28
2017-03-12T13:00:33.321Z,44.57
2017-03-12T13:01:25.141Z,43.72
2017-03-12T13:03:36.440Z,43.73
2017-03-12T13:05:33.118Z,42.54
2017-03-12T13:06:28.590Z,41.95
2017-03-12T13:07:33.833Z,42.28
2017-03-12T13:08:28.964Z,43.22
2017-03-12T13:09:31.048Z,43.00
2017-03-12T13:13:32.256Z,42.72
2017-03-12T13:14:58.763Z,41.81
2017-03-12T13:15:26.677Z,41.72
2017-03-12T13:16:26.187Z,41.50
2017-03-12T13:17:29.094Z,41.74
2017-03-12T13:18:32.281Z,41.77
2017-03-12T13:19:25.032Z,41.53
2017-03-12T13:21:32.508Z,41.24
2017-03-12T13:24:35.892Z,41.47
2017-03-12T13:25:32.144Z,41.57
2017-03-12T13:28:32.774Z,41.24
2017-03-12T13:29:33.464Z,39.81
2017-03-12T13:31:38.742Z,39.33
2017-03-12T13:32:44.976Z,39.29
2017-03-12T13:33:24.059Z,39.15
2017-03-12T13:34:26.053Z,38.62
2017-03-12T13:35:31.795Z,39.56
2017-03-12T13:36:25.001Z,38.50
2017-03-12T13:38:22.348Z,38.86
2017-03-12T13:40:23.719Z,38.12
2017-03-12T13:42:29.716Z,39.20
2017-03-12T13:43:40.011Z,38.29
2017-03-12T13:45:33.041Z,37.43
2017-03-12T13:46:27.206Z,35.99
2017-03-12T13:47:27.337Z,36.06
2017-03-12T13:49:25.346Z,35.79
2017-03-12T13:50:32.589Z,35.26
2017-03-12T13:53:34.906Z,36.09
2017-03-12T13:54:41.572Z,35.58
2017-03-12T13:56:29.090Z,36.15
2017-03-12T13:57:30.910Z,36.28
2017-03-12T13:58:29.871Z,37.65
2017-03-12T13:59:37.654Z,36.81
2017-03-12T14:00:44.153Z,37.36
2017-03-12T14:02:26.056Z,34.06
2017-03-12T14:03:30.105Z,31.17
2017-03-12T14:05:29.838Z,30.74
2017-03-12T14:06:42.120Z,31.64
2017-03-12T14:07:30.160Z,31.76
2017-03-12T14:08:24.823Z,32.13
2017-03-12T14:11:33.039Z,30.30
2017-03-12T14:12:32.228Z,31.19
2017-03-12T14:14:31.228Z,34.00
2017-03-12T14:15:23.216Z,34.60
2017-03-12T14:18:27.506Z,36.17
2017-03-12T14:19:34.797Z,37.10
2017-03-12T14:20:35.966Z,36.62
2017-03-12T14:21:26.734Z,36.74
2017-03-12T14:22:32.976Z,36.17
2017-03-12T14:25:35.269Z,36.67
2017-03-12T14:26:39.268Z,35.55
2017-03-12T14:27:27.186Z,34.04
2017-03-12T14:30:37.807Z,33.62
2017-03-12T14:33:28.217Z,36.66
2017-03-12T14:34:44.672Z,36.43